Time;durP1;ratioP1;P1;durP2;ratioP2;P2;SDS_P1;SDS_P2;PMS_P1;PMS_P2;Temp;Humidity;BMP_temperature;BMP_pressure;BME280_temperature;BME280_humidity;BME280_pressure;Samples;Min_cycle;Max_cycle;Signal;HPM_P1;HPM_P2
2021/09/08 00:01:29;;;;;;;20.92;13.73;;;;;;;15.15;70.66;96696.56;4933444;29;20104;-77
2021/09/08 00:03:57;;;;;;;17.42;13.02;;;;;;;15.11;70.47;96695.63;4947792;29;20051;-79
2021/09/08 00:06:24;;;;;;;18.67;13.73;;;;;;;15.08;71.32;96688.06;4951972;29;20051;-77
2021/09/08 00:08:50;;;;;;;18.55;12.80;;;;;;;15.08;71.27;96693.53;4952612;29;20049;-78
2021/09/08 00:11:17;;;;;;;21.73;13.13;;;;;;;15.11;70.71;96684.66;4952127;29;20047;-77
2021/09/08 00:13:43;;;;;;;19.45;13.45;;;;;;;15.08;71.08;96688.06;4952371;29;20047;-77
2021/09/08 00:16:10;;;;;;;19.63;13.35;;;;;;;15.08;70.70;96685.31;4951976;29;20047;-77
2021/09/08 00:18:36;;;;;;;18.48;12.95;;;;;;;15.06;70.70;96674.69;4952356;29;20043;-76
2021/09/08 00:21:04;;;;;;;19.42;12.93;;;;;;;15.03;71.06;96671.81;4951879;29;20065;-78
2021/09/08 00:23:31;;;;;;;19.50;13.32;;;;;;;15.01;71.68;96668.63;4952114;29;20384;-76
2021/09/08 00:25:57;;;;;;;18.95;13.48;;;;;;;14.98;72.48;96667.38;4952338;29;20047;-77
2021/09/08 00:28:24;;;;;;;19.70;12.98;;;;;;;14.95;72.05;96669.97;4951461;29;20487;-76
2021/09/08 00:30:51;;;;;;;24.00;13.57;;;;;;;14.88;71.32;96656.84;4952420;29;20055;-81
2021/09/08 00:33:17;;;;;;;20.48;13.85;;;;;;;14.85;71.63;96655.56;4951706;29;20498;-78
2021/09/08 00:35:44;;;;;;;22.23;13.93;;;;;;;14.83;71.80;96657.03;4952329;29;20047;-77
2021/09/08 00:38:13;;;;;;;20.85;14.18;;;;;;;14.83;71.78;96657.03;4951631;29;20151;-78
2021/09/08 00:40:40;;;;;;;20.88;13.55;;;;;;;14.82;72.31;96660.91;4952561;29;20055;-77
2021/09/08 00:43:06;;;;;;;21.42;13.57;;;;;;;14.82;72.15;96661.69;4951790;29;20050;-76
2021/09/08 00:45:33;;;;;;;24.95;14.27;;;;;;;14.82;72.37;96656.22;4952254;29;20051;-80
2021/09/08 00:47:59;;;;;;;20.80;14.30;;;;;;;14.84;72.27;96653.97;4951908;29;20043;-77
2021/09/08 00:50:26;;;;;;;21.52;14.23;;;;;;;14.85;72.81;96661.03;4951461;29;20051;-76
2021/09/08 00:52:53;;;;;;;20.50;14.40;;;;;;;14.87;72.41;96650.53;4952130;29;20138;-82
2021/09/08 00:55:22;;;;;;;20.77;14.07;;;;;;;14.87;72.42;96647.78;4951943;29;20043;-80
2021/09/08 00:57:49;;;;;;;21.90;13.90;;;;;;;14.85;72.24;96643.78;4951997;29;20062;-77
2021/09/08 01:00:16;;;;;;;17.10;12.75;;;;;;;14.84;72.06;96648.47;4951589;28;20098;-80
2021/09/08 01:02:43;;;;;;;20.33;14.65;;;;;;;14.86;71.82;96651.66;4955450;29;20491;-80
2021/09/08 01:05:11;;;;;;;19.08;13.48;;;;;;;14.84;71.50;96645.72;4954824;29;20043;-76
2021/09/08 01:07:37;;;;;;;19.30;13.13;;;;;;;14.84;71.65;96637.50;4955469;29;20051;-77
2021/09/08 01:10:05;;;;;;;22.48;14.43;;;;;;;14.83;71.42;96644.13;4954895;29;20051;-77
2021/09/08 01:12:33;;;;;;;22.08;13.10;;;;;;;14.81;71.43;96649.13;4955319;29;20058;-81
2021/09/08 01:14:59;;;;;;;22.27;13.63;;;;;;;14.79;71.21;96645.16;4955059;29;20047;-81
2021/09/08 01:17:26;;;;;;;21.05;13.98;;;;;;;14.78;71.18;96641.59;4954617;29;20047;-80
2021/09/08 01:19:52;;;;;;;23.98;15.43;;;;;;;14.73;71.00;96647.31;4955020;29;20051;-76
2021/09/08 01:22:20;;;;;;;23.60;15.40;;;;;;;14.68;70.82;96644.75;4954725;29;20054;-81
2021/09/08 01:24:48;;;;;;;18.17;14.05;;;;;;;14.64;71.00;96640.28;4955099;29;20422;-78
2021/09/08 01:27:15;;;;;;;20.30;14.20;;;;;;;14.59;71.16;96635.81;4954497;29;20062;-80
2021/09/08 01:29:41;;;;;;;20.67;14.90;;;;;;;14.54;71.49;96636.81;4954615;29;20521;-81
2021/09/08 01:32:08;;;;;;;22.35;14.55;;;;;;;14.52;71.49;96641.06;4951672;29;20039;-78
2021/09/08 01:34:34;;;;;;;20.88;14.32;;;;;;;14.50;71.46;96632.34;4954656;29;20058;-77
2021/09/08 01:37:01;;;;;;;24.10;14.93;;;;;;;14.47;71.38;96635.75;4954441;29;20066;-78
2021/09/08 01:39:27;;;;;;;21.10;14.32;;;;;;;14.44;72.17;96633.66;4954077;29;20512;-78
2021/09/08 01:41:55;;;;;;;22.48;15.10;;;;;;;14.41;71.91;96628.84;4954295;29;20059;-76
2021/09/08 01:44:23;;;;;;;24.55;15.68;;;;;;;14.36;72.34;96630.69;4953687;29;20051;-81
2021/09/08 01:46:52;;;;;;;23.60;15.43;;;;;;;14.33;72.40;96628.59;4954693;29;20047;-81
2021/09/08 01:49:18;;;;;;;23.05;15.18;;;;;;;14.31;72.50;96622.66;4953588;29;20047;-79
2021/09/08 01:51:45;;;;;;;21.73;15.10;;;;;;;14.29;72.67;96622.19;4954359;29;20054;-77
2021/09/08 01:54:12;;;;;;;25.92;15.93;;;;;;;14.26;73.01;96616.59;4953581;29;20050;-78
2021/09/08 01:56:38;;;;;;;24.40;16.00;;;;;;;14.25;73.10;96623.19;4954487;29;20076;-80
2021/09/08 01:59:06;;;;;;;23.95;16.08;;;;;;;14.22;73.43;96616.44;4954003;29;20517;-78
2021/09/08 02:01:33;;;;;;;24.10;16.27;;;;;;;14.21;73.46;96614.84;4953919;29;20062;-79
2021/09/08 02:03:59;;;;;;;22.88;15.68;;;;;;;14.21;73.56;96614.84;4954374;29;20047;-77
2021/09/08 02:06:28;;;;;;;24.55;16.98;;;;;;;14.21;73.95;96611.31;4953822;29;20056;-78
2021/09/08 02:08:57;;;;;;;25.42;16.63;;;;;;;14.19;74.03;96614.38;4954216;29;20055;-80
2021/09/08 02:11:23;;;;;;;24.35;16.48;;;;;;;14.20;74.13;96613.25;4953424;28;20047;-79
2021/09/08 02:13:50;;;;;;;27.48;17.05;;;;;;;14.22;74.36;96605.50;4952950;29;20422;-81
2021/09/08 02:16:21;;;;;;;25.77;17.10;;;;;;;14.24;74.49;96608.69;4953693;29;20050;-79
2021/09/08 02:18:48;;;;;;;27.10;17.98;;;;;;;14.20;74.54;96596.81;4954111;29;20053;-79
2021/09/08 02:21:15;;;;;;;26.48;16.77;;;;;;;14.18;74.20;96598.28;4953732;29;20063;-77
2021/09/08 02:23:41;;;;;;;24.58;16.73;;;;;;;14.15;74.18;96598.94;4953800;29;20419;-78
2021/09/08 02:26:08;;;;;;;26.17;17.73;;;;;;;14.12;74.32;96592.22;4953246;29;20518;-77
2021/09/08 02:28:35;;;;;;;25.52;17.02;;;;;;;14.09;74.64;96587.38;4953646;29;20051;-80
2021/09/08 02:31:01;;;;;;;26.58;17.63;;;;;;;14.09;74.80;96601.06;4953545;29;20052;-83
2021/09/08 02:33:29;;;;;;;26.27;17.52;;;;;;;14.06;75.07;96597.09;4953358;29;20052;-77
2021/09/08 02:35:56;;;;;;;30.50;18.98;;;;;;;14.09;75.41;96590.94;4953465;29;20062;-78
2021/09/08 02:38:22;;;;;;;29.13;18.73;;;;;;;14.09;75.57;96595.59;4952912;29;20518;-80
2021/09/08 02:40:49;;;;;;;29.70;19.35;;;;;;;14.10;75.58;96589.81;4953462;29;20051;-81
2021/09/08 02:43:16;;;;;;;26.98;18.90;;;;;;;14.09;75.70;96590.13;4952966;29;20422;-79
2021/09/08 02:45:42;;;;;;;30.05;19.38;;;;;;;14.09;75.54;96590.13;4953574;29;20431;-78
2021/09/08 02:48:09;;;;;;;31.33;19.67;;;;;;;14.09;75.81;96592.88;4952948;29;20051;-80
2021/09/08 02:50:37;;;;;;;31.35;18.95;;;;;;;14.09;75.90;96590.13;4953662;29;20528;-80
2021/09/08 02:53:03;;;;;;;30.42;19.45;;;;;;;14.07;75.85;96586.94;4953043;29;20411;-80
2021/09/08 02:55:30;;;;;;;28.30;18.75;;;;;;;14.06;75.96;96586.13;4953244;29;20074;-80
2021/09/08 02:57:57;;;;;;;32.47;19.77;;;;;;;14.08;76.25;96581.13;4953095;29;20058;-77
2021/09/08 03:00:23;;;;;;;31.70;19.95;;;;;;;14.07;76.42;96575.97;4952708;29;20065;-77
2021/09/08 03:02:50;;;;;;;28.58;19.48;;;;;;;14.07;76.44;96575.97;4952902;29;20047;-80
2021/09/08 03:05:16;;;;;;;30.38;19.45;;;;;;;14.06;76.65;96574.38;4952671;29;20055;-77
2021/09/08 03:07:44;;;;;;;34.25;20.08;;;;;;;14.09;76.52;96570.97;4952985;29;20070;-80
2021/09/08 03:10:11;;;;;;;32.13;19.95;;;;;;;14.09;76.52;96569.03;4952525;29;20039;-79
2021/09/08 03:12:38;;;;;;;33.35;19.83;;;;;;;14.07;76.63;96570.50;4953000;29;20051;-77
2021/09/08 03:15:06;;;;;;;29.60;19.27;;;;;;;14.04;76.63;96566.50;4952675;29;20055;-75
2021/09/08 03:17:32;;;;;;;32.55;19.77;;;;;;;14.05;76.72;96564.56;4952885;29;20518;-77
2021/09/08 03:19:59;;;;;;;29.83;19.85;;;;;;;14.04;76.86;96565.69;4953164;29;20579;-75
2021/09/08 03:22:25;;;;;;;30.00;19.65;;;;;;;14.03;76.76;96561.34;4952557;29;20046;-78
2021/09/08 03:24:53;;;;;;;32.40;20.73;;;;;;;14.06;76.82;96561.50;4952482;28;20051;-78
2021/09/08 03:27:20;;;;;;;34.42;21.35;;;;;;;14.08;76.89;96572.91;4952389;29;20059;-76
2021/09/08 03:29:46;;;;;;;28.75;20.00;;;;;;;14.07;77.26;96559.56;4952907;29;20430;-78
2021/09/08 03:32:13;;;;;;;36.10;21.08;;;;;;;14.12;76.52;96562.09;4952132;29;20047;-76
2021/09/08 03:34:39;;;;;;;31.65;21.40;;;;;;;14.12;76.22;96567.56;4952757;29;20054;-77
2021/09/08 03:37:06;;;;;;;31.48;20.52;;;;;;;14.08;76.55;96561.16;4952137;29;20043;-76
2021/09/08 03:39:32;;;;;;;32.53;20.92;;;;;;;14.11;76.14;96560.50;4952389;29;20043;-75
2021/09/08 03:42:00;;;;;;;34.78;22.17;;;;;;;14.06;76.97;96566.16;4952574;29;20543;-76
2021/09/08 03:44:27;;;;;;;36.33;20.95;;;;;;;14.05;77.19;96561.84;4952485;29;20051;-76
2021/09/08 03:46:53;;;;;;;33.17;21.88;;;;;;;14.01;77.33;96560.91;4952623;29;20419;-75
2021/09/08 03:49:20;;;;;;;35.03;21.95;;;;;;;14.01;77.55;96571.84;4951953;29;20051;-77
2021/09/08 03:51:46;;;;;;;38.50;22.77;;;;;;;13.98;77.65;96570.56;4952678;29;20055;-76
2021/09/08 03:54:13;;;;;;;37.63;23.05;;;;;;;13.97;78.23;96565.44;4952015;29;20058;-76
2021/09/08 03:56:39;;;;;;;40.10;23.25;;;;;;;13.99;78.51;96572.19;4952531;29;20502;-76
2021/09/08 03:59:07;;;;;;;33.70;22.85;;;;;;;13.97;78.77;96566.22;4952056;29;20537;-76
2021/09/08 04:01:34;;;;;;;36.10;22.52;;;;;;;13.96;78.54;96569.31;4952217;29;20050;-76
2021/09/08 04:04:01;;;;;;;38.33;24.45;;;;;;;13.98;78.84;96567.81;4952339;29;20050;-80
2021/09/08 04:06:27;;;;;;;40.67;24.45;;;;;;;14.01;78.81;96566.38;4952054;29;20050;-75
2021/09/08 04:08:54;;;;;;;35.58;22.50;;;;;;;14.04;78.38;96560.22;4952337;29;20047;-76
2021/09/08 04:11:20;;;;;;;32.78;22.45;;;;;;;14.07;78.24;96565.03;4950980;29;20143;-76
2021/09/08 04:13:47;;;;;;;36.88;23.20;;;;;;;14.09;77.86;96557.25;4950181;29;20055;-76
2021/09/08 04:16:14;;;;;;;36.08;22.13;;;;;;;14.13;77.87;96562.88;4951207;29;20509;-76
2021/09/08 04:18:41;;;;;;;37.95;23.05;;;;;;;14.13;77.56;96555.47;4952303;29;20059;-76
2021/09/08 04:21:07;;;;;;;37.08;22.67;;;;;;;14.11;77.52;96549.53;4951572;29;20051;-76
2021/09/08 04:23:34;;;;;;;39.75;23.15;;;;;;;14.09;77.87;96555.34;4952250;29;20051;-75
2021/09/08 04:26:00;;;;;;;37.58;24.55;;;;;;;14.07;77.69;96548.59;4952342;29;20051;-77
2021/09/08 04:28:27;;;;;;;35.20;22.60;;;;;;;14.08;77.64;96550.19;4952052;29;20047;-76
2021/09/08 04:30:53;;;;;;;34.00;22.67;;;;;;;14.07;77.72;96548.59;4952160;29;20502;-75
2021/09/08 04:33:21;;;;;;;37.47;22.67;;;;;;;14.01;78.09;96550.75;4951408;29;20058;-76
2021/09/08 04:35:48;;;;;;;34.10;22.25;;;;;;;14.00;78.42;96553.81;4953021;28;20058;-76
2021/09/08 04:38:14;;;;;;;34.85;22.63;;;;;;;14.01;77.95;96549.94;4955214;29;20070;-75
2021/09/08 04:40:41;;;;;;;37.15;23.13;;;;;;;14.00;77.79;96543.66;4955905;29;20058;-75
2021/09/08 04:43:07;;;;;;;33.55;22.55;;;;;;;14.00;78.04;96549.16;4955327;29;20047;-76
2021/09/08 04:45:34;;;;;;;33.13;22.27;;;;;;;13.99;77.42;96552.19;4955466;29;20414;-76
2021/09/08 04:48:00;;;;;;;36.65;22.73;;;;;;;13.98;77.74;96545.13;4955666;29;20054;-78
2021/09/08 04:50:28;;;;;;;38.85;24.13;;;;;;;13.94;77.61;96550.50;4955327;29;20046;-78
2021/09/08 04:52:55;;;;;;;34.50;22.15;;;;;;;13.91;78.04;96555.81;4954741;29;20051;-77
2021/09/08 04:55:21;;;;;;;33.03;22.65;;;;;;;13.90;77.71;96556.97;4955160;29;20062;-78
2021/09/08 04:57:48;;;;;;;33.97;22.17;;;;;;;13.88;77.72;96560.00;4955568;29;20047;-76
2021/09/08 05:00:15;;;;;;;35.72;22.80;;;;;;;13.89;78.01;96566.31;4955065;29;20434;-79
2021/09/08 05:02:41;;;;;;;33.05;22.45;;;;;;;13.88;78.01;96562.75;4954934;29;20130;-80
2021/09/08 05:05:09;;;;;;;38.03;22.77;;;;;;;13.83;78.36;96563.78;4954937;29;20058;-81
2021/09/08 05:07:36;;;;;;;38.38;23.50;;;;;;;13.83;78.21;96566.50;4955149;29;20051;-77
2021/09/08 05:10:03;;;;;;;38.15;25.17;;;;;;;13.83;78.52;96560.22;4954687;29;20047;-78
2021/09/08 05:12:30;;;;;;;39.60;24.88;;;;;;;13.86;78.94;96558.75;4955166;29;20054;-79
2021/09/08 05:14:56;;;;;;;43.92;24.80;;;;;;;13.83;79.52;96561.03;4954880;29;20061;-80
2021/09/08 05:17:23;;;;;;;36.70;23.92;;;;;;;13.82;79.43;96562.16;4954571;29;20043;-80
2021/09/08 05:19:49;;;;;;;41.55;24.77;;;;;;;13.87;79.78;96560.34;4955104;29;20055;-81
2021/09/08 05:22:16;;;;;;;37.47;24.73;;;;;;;13.91;79.61;96566.78;4954521;29;20059;-79
2021/09/08 05:24:44;;;;;;;38.67;24.05;;;;;;;13.92;79.05;96565.63;4954890;29;20529;-81
2021/09/08 05:27:11;;;;;;;36.58;23.38;;;;;;;13.92;79.48;96568.38;4954604;29;20047;-79
2021/09/08 05:29:37;;;;;;;39.45;23.92;;;;;;;13.90;79.65;96565.97;4954708;29;20067;-79
2021/09/08 05:32:04;;;;;;;35.67;23.85;;;;;;;13.93;80.26;96567.22;4954056;29;20074;-77
2021/09/08 05:34:31;;;;;;;42.63;24.45;;;;;;;13.94;80.27;96564.19;4954664;29;20047;-76
2021/09/08 05:36:57;;;;;;;39.85;25.17;;;;;;;13.95;80.05;96563.03;4954649;29;20427;-79
2021/09/08 05:39:24;;;;;;;43.15;25.83;;;;;;;13.98;80.13;96562.34;4953840;29;20040;-77
2021/09/08 05:41:52;;;;;;;48.45;26.10;;;;;;;14.01;80.11;96561.69;4954884;29;20050;-76
2021/09/08 05:44:18;;;;;;;44.30;25.67;;;;;;;14.03;79.89;96564.09;4953902;29;20051;-76
2021/09/08 05:46:45;;;;;;;43.53;27.20;;;;;;;14.07;79.90;96568.56;4953043;28;20051;-78
2021/09/08 05:49:12;;;;;;;43.17;25.30;;;;;;;14.12;80.01;96564.81;4953016;29;20103;-77
2021/09/08 05:51:40;;;;;;;44.13;26.00;;;;;;;14.20;80.05;96565.88;4953264;29;20102;-77
2021/09/08 05:54:06;;;;;;;42.10;25.73;;;;;;;14.23;79.30;96570.69;4954305;29;20055;-81
2021/09/08 05:56:33;;;;;;;43.40;26.58;;;;;;;14.17;79.55;96563.81;4954372;29;20529;-76
2021/09/08 05:59:01;;;;;;;40.22;27.10;;;;;;;14.15;79.94;96563.34;4954362;29;20054;-76
2021/09/08 06:01:27;;;;;;;50.25;27.63;;;;;;;14.21;80.17;96565.56;4953671;29;20047;-76
2021/09/08 06:03:54;;;;;;;45.17;28.40;;;;;;;14.23;80.14;96568.75;4954166;29;20051;-76
2021/09/08 06:06:20;;;;;;;48.42;29.05;;;;;;;14.30;80.49;96568.19;4954080;29;20084;-76
2021/09/08 06:08:47;;;;;;;45.67;27.60;;;;;;;14.39;80.87;96562.63;4954315;29;20055;-78
2021/09/08 06:11:13;;;;;;;50.03;28.92;;;;;;;14.35;80.16;96566.06;4954034;29;20529;-77
2021/09/08 06:13:40;;;;;;;57.10;30.52;;;;;;;14.36;80.18;96567.66;4954220;29;20062;-75
2021/09/08 06:16:08;;;;;;;48.58;28.23;;;;;;;14.43;80.41;96561.63;4953652;29;20055;-77
2021/09/08 06:18:35;;;;;;;48.00;27.90;;;;;;;14.44;80.35;96563.22;4953531;29;20418;-78
2021/09/08 06:21:05;;;;;;;46.03;27.85;;;;;;;14.46;80.20;96565.63;4953892;29;20054;-81
2021/09/08 06:23:31;;;;;;;49.47;28.90;;;;;;;14.49;80.44;96554.81;4953746;29;20047;-76
2021/09/08 06:25:58;;;;;;;51.83;30.52;;;;;;;14.59;80.42;96559.09;4954178;29;20047;-77
2021/09/08 06:28:24;;;;;;;49.15;27.73;;;;;;;14.64;80.05;96556.13;4953276;29;20047;-76
2021/09/08 06:30:51;;;;;;;49.63;29.10;;;;;;;14.74;80.07;96552.94;4953792;29;20047;-77
2021/09/08 06:33:19;;;;;;;45.90;27.20;;;;;;;14.84;79.82;96549.78;4952875;29;20419;-77
2021/09/08 06:35:45;;;;;;;45.83;26.13;;;;;;;14.92;79.82;96555.47;4953616;29;20048;-77
2021/09/08 06:38:12;;;;;;;48.63;26.38;;;;;;;14.95;79.08;96554.81;4953370;29;20059;-80
2021/09/08 06:40:39;;;;;;;44.30;24.70;;;;;;;14.97;79.23;96547.03;4953994;29;20059;-77
2021/09/08 06:43:05;;;;;;;44.58;26.30;;;;;;;14.97;78.70;96541.56;4953159;29;20054;-76
2021/09/08 06:45:33;;;;;;;39.90;24.35;;;;;;;15.06;79.09;96539.50;4953649;29;20073;-77
2021/09/08 06:47:59;;;;;;;39.67;24.88;;;;;;;15.10;79.13;96546.72;4953734;29;20050;-77
2021/09/08 06:50:27;;;;;;;41.70;25.10;;;;;;;15.21;78.84;96541.56;4953095;29;20126;-81
2021/09/08 06:52:54;;;;;;;40.80;24.42;;;;;;;15.24;78.88;96535.38;4953553;29;20059;-78
2021/09/08 06:55:20;;;;;;;37.90;23.95;;;;;;;15.33;79.16;96538.81;4953108;29;20050;-78
2021/09/08 06:57:47;;;;;;;37.90;23.83;;;;;;;15.39;78.51;96529.19;4953257;28;20051;-77
2021/09/08 07:00:14;;;;;;;37.67;24.75;;;;;;;15.48;78.65;96520.84;4952619;29;20424;-78
2021/09/08 07:02:40;;;;;;;34.17;22.83;;;;;;;15.55;78.07;96528.50;4953088;29;20558;-77
2021/09/08 07:05:07;;;;;;;41.67;24.00;;;;;;;15.69;78.16;96522.69;4952996;29;20051;-80
2021/09/08 07:07:35;;;;;;;39.22;23.17;;;;;;;15.77;77.05;96519.81;4953414;29;20047;-77
2021/09/08 07:10:02;;;;;;;33.38;21.98;;;;;;;15.93;77.65;96527.31;4952615;29;20074;-77
2021/09/08 07:12:28;;;;;;;36.80;24.23;;;;;;;16.01;77.31;96524.41;4953208;29;20392;-75
2021/09/08 07:14:55;;;;;;;33.17;22.15;;;;;;;16.14;76.78;96522.44;4952930;29;20523;-75
2021/09/08 07:17:21;;;;;;;35.60;22.55;;;;;;;16.33;76.11;96519.00;4952341;29;20059;-75
2021/09/08 07:19:48;;;;;;;35.38;20.58;;;;;;;16.76;75.72;96523.75;4953078;29;20055;-75
2021/09/08 07:22:14;;;;;;;28.80;18.58;;;;;;;17.75;70.49;96521.78;4950363;29;20054;-77
2021/09/08 07:24:42;;;;;;;29.55;18.48;;;;;;;18.81;67.88;96524.28;4933109;29;20055;-77
2021/09/08 07:27:09;;;;;;;23.92;15.73;;;;;;;19.70;63.85;96512.72;4932533;29;20674;-76
2021/09/08 07:29:35;;;;;;;23.20;16.00;;;;;;;20.55;61.92;96513.00;4933474;29;20507;-76
2021/09/08 07:32:05;;;;;;;21.73;15.57;;;;;;;21.41;59.19;96524.09;4939063;29;20626;-76
2021/09/08 07:34:31;;;;;;;20.92;15.02;;;;;;;21.94;55.90;96527.22;4952733;29;20517;-76
2021/09/08 07:36:58;;;;;;;19.27;14.23;;;;;;;22.48;52.98;96519.94;4952917;29;20047;-75
2021/09/08 07:39:25;;;;;;;20.52;13.40;;;;;;;23.04;51.40;96518.50;4950273;29;20043;-75
2021/09/08 07:41:53;;;;;;;22.77;14.05;;;;;;;23.35;50.29;96530.03;4933263;29;20047;-76
2021/09/08 07:44:19;;;;;;;20.42;13.18;;;;;;;23.71;50.12;96521.69;4932913;29;20076;-76
2021/09/08 07:46:45;;;;;;;17.92;13.73;;;;;;;24.08;47.40;96519.22;4933263;29;20052;-76
2021/09/08 07:49:12;;;;;;;17.67;13.10;;;;;;;24.43;47.29;96528.63;4933117;29;20055;-76
2021/09/08 07:51:38;;;;;;;18.60;12.75;;;;;;;24.66;46.56;96520.59;4933036;29;20047;-76
2021/09/08 07:54:05;;;;;;;16.30;12.35;;;;;;;25.01;46.72;96518.78;4931515;29;20047;-76
2021/09/08 07:56:31;;;;;;;18.20;11.88;;;;;;;25.24;45.08;96521.03;4933233;29;20088;-76
2021/09/08 07:58:59;;;;;;;17.70;12.48;;;;;;;25.54;43.90;96520.38;4933142;29;20058;-77
2021/09/08 08:01:26;;;;;;;17.60;11.85;;;;;;;25.63;43.48;96526.28;4934042;29;20043;-76
2021/09/08 08:03:52;;;;;;;16.65;12.45;;;;;;;25.65;43.67;96526.66;4952127;29;20051;-76
2021/09/08 08:06:19;;;;;;;16.58;11.45;;;;;;;25.65;42.04;96528.66;4951111;29;20514;-77
2021/09/08 08:08:45;;;;;;;18.55;11.60;;;;;;;25.71;42.49;96525.00;4951934;29;20062;-76
2021/09/08 08:11:11;;;;;;;16.55;11.98;;;;;;;26.12;43.40;96527.00;4954957;28;20043;-76
2021/09/08 08:13:38;;;;;;;14.82;10.80;;;;;;;26.63;42.08;96519.63;4955919;29;20054;-76
2021/09/08 08:16:06;;;;;;;15.70;11.18;;;;;;;27.04;42.24;96515.84;4955219;29;20177;-77
2021/09/08 08:18:33;;;;;;;16.67;11.57;;;;;;;27.23;39.66;96519.97;4955685;29;20050;-77
2021/09/08 08:20:59;;;;;;;14.95;11.30;;;;;;;27.09;38.64;96518.19;4956212;29;20055;-76
2021/09/08 08:23:28;;;;;;;15.82;10.85;;;;;;;27.11;40.74;96504.59;4955143;29;20046;-76
2021/09/08 08:25:54;;;;;;;21.20;10.63;;;;;;;27.43;40.60;96520.06;4955305;29;20102;-75
2021/09/08 08:28:21;;;;;;;15.07;11.25;;;;;;;27.53;39.68;96513.50;4955414;29;20058;-76
2021/09/08 08:30:47;;;;;;;15.98;10.50;;;;;;;27.66;38.35;96514.44;4955681;29;20542;-75
2021/09/08 08:33:15;;;;;;;16.20;11.30;;;;;;;27.72;39.10;96510.00;4955041;29;20058;-76
2021/09/08 08:35:42;;;;;;;15.35;10.60;;;;;;;27.80;38.58;96517.03;4955753;29;20047;-75
2021/09/08 08:38:10;;;;;;;16.60;10.52;;;;;;;27.85;38.45;96515.75;4953988;29;20412;-76
2021/09/08 08:40:37;;;;;;;14.52;10.45;;;;;;;28.18;39.28;96513.91;4952831;29;20514;-77
2021/09/08 08:43:03;;;;;;;16.70;10.63;;;;;;;28.39;39.17;96503.53;4952641;29;20491;-76
2021/09/08 08:45:31;;;;;;;13.82;9.68;;;;;;;28.64;37.52;96506.59;4955552;29;20051;-76
2021/09/08 08:47:59;;;;;;;14.30;10.95;;;;;;;28.68;37.93;96500.94;4955779;29;20075;-78
2021/09/08 08:50:27;;;;;;;15.95;10.77;;;;;;;28.70;37.27;96504.88;4954750;29;20047;-77
2021/09/08 08:52:55;;;;;;;15.52;10.30;;;;;;;28.90;36.25;96512.44;4955309;29;20047;-76
2021/09/08 08:55:22;;;;;;;17.63;9.70;;;;;;;28.97;34.94;96503.91;4954996;29;20051;-76
2021/09/08 08:57:49;;;;;;;13.27;9.63;;;;;;;28.80;36.62;96501.03;4955193;29;20075;-76
2021/09/08 09:00:16;;;;;;;13.65;9.52;;;;;;;28.62;36.52;96503.47;4953889;29;20062;-77
2021/09/08 09:02:47;;;;;;;14.45;10.32;;;;;;;28.76;37.20;96500.31;4954020;29;20505;-76
2021/09/08 09:05:30;;;;;;;14.32;9.82;;;;;;;28.97;35.97;96493.47;4953671;29;20081;-77
2021/09/08 09:07:57;;;;;;;15.70;10.50;;;;;;;28.91;34.50;96495.19;4955192;29;20510;-76
2021/09/08 09:10:24;;;;;;;14.57;9.75;;;;;;;29.07;35.24;96483.25;4954806;29;20407;-76
2021/09/08 09:12:51;;;;;;;11.73;9.77;;;;;;;29.09;33.81;96480.81;4954966;29;20051;-77
2021/09/08 09:15:20;;;;;;;13.80;9.85;;;;;;;29.14;36.71;96480.28;4954265;29;20058;-76
2021/09/08 09:17:48;;;;;;;20.13;9.77;;;;;;;29.31;36.20;96476.25;4952414;29;20054;-76
2021/09/08 09:20:17;;;;;;;12.48;9.40;;;;;;;29.19;35.29;96474.16;4932549;29;20051;-76
2021/09/08 09:22:46;;;;;;;13.77;8.95;;;;;;;29.29;34.46;96475.91;4933234;29;20052;-76
2021/09/08 09:25:15;;;;;;;12.30;9.07;;;;;;;29.59;35.78;96483.16;4933583;29;20048;-76
2021/09/08 09:27:46;;;;;;;11.43;9.20;;;;;;;29.84;35.01;96479.72;4934961;29;21169;-78
2021/09/08 09:30:17;;;;;;;15.05;8.55;;;;;;;29.94;34.64;96471.44;4934138;29;20055;-76
2021/09/08 09:32:45;;;;;;;15.68;9.93;;;;;;;29.48;33.32;96473.44;4937409;29;20049;-77
2021/09/08 09:35:13;;;;;;;11.57;9.48;;;;;;;29.16;36.30;96475.00;4935106;29;20058;-76
2021/09/08 09:37:46;;;;;;;14.30;9.63;;;;;;;28.74;35.86;96471.97;4935352;29;20507;-78
2021/09/08 09:40:15;;;;;;;13.40;8.73;;;;;;;28.32;36.64;96470.84;4934714;29;20055;-77
2021/09/08 09:42:43;;;;;;;13.38;9.82;;;;;;;27.90;40.21;96469.69;4927939;29;20058;-77
2021/09/08 09:45:11;;;;;;;13.43;9.35;;;;;;;27.51;39.09;96459.97;4934879;29;20062;-77
2021/09/08 09:47:40;;;;;;;15.52;9.15;;;;;;;27.09;43.43;96453.09;4935336;29;20044;-77
2021/09/08 09:50:08;;;;;;;14.00;10.20;;;;;;;26.77;42.30;96449.56;4934724;29;20052;-77
2021/09/08 09:52:35;;;;;;;13.43;9.18;;;;;;;26.57;41.44;96445.88;4935210;29;20059;-76
2021/09/08 09:55:05;;;;;;;11.30;8.85;;;;;;;26.32;41.60;96448.22;4934936;29;20439;-75
2021/09/08 09:57:32;;;;;;;11.65;8.90;;;;;;;26.02;41.10;96444.19;4935610;29;20048;-76
2021/09/08 09:59:59;;;;;;;10.93;8.68;;;;;;;25.91;42.87;96441.53;4934748;29;20063;-77
2021/09/08 10:02:27;;;;;;;14.27;9.85;;;;;;;25.85;42.89;96431.25;4943728;29;20106;-76
2021/09/08 10:04:54;;;;;;;17.85;10.13;;;;;;;25.87;44.67;96428.84;4953995;29;20634;-76
2021/09/08 10:07:23;;;;;;;15.20;9.98;;;;;;;25.84;43.82;96429.66;4953827;29;20137;-76
2021/09/08 10:09:51;;;;;;;12.98;9.95;;;;;;;25.82;42.55;96429.28;4953837;29;20123;-76
2021/09/08 10:12:23;;;;;;;13.98;9.63;;;;;;;25.68;43.11;96428.19;4953679;29;20550;-77
2021/09/08 10:14:52;;;;;;;14.88;10.05;;;;;;;25.66;43.30;96419.47;4954062;29;20052;-76
2021/09/08 10:17:19;;;;;;;15.23;9.52;;;;;;;25.59;43.47;96416.78;4952811;29;20310;-74
2021/09/08 10:19:49;;;;;;;13.57;9.77;;;;;;;25.51;44.04;96423.63;4952561;29;20503;-76
2021/09/08 10:22:16;;;;;;;16.38;9.80;;;;;;;25.46;45.71;96426.84;4952975;29;20131;-76
2021/09/08 10:24:47;;;;;;;13.85;9.52;;;;;;;25.42;44.62;96415.75;4954004;29;20051;-76
2021/09/08 10:27:23;;;;;;;13.48;9.07;;;;;;;25.36;44.70;96416.59;4952390;29;20070;-77
2021/09/08 10:29:52;;;;;;;15.38;9.02;;;;;;;25.19;43.36;96419.16;4947754;29;20051;-77
2021/09/08 10:32:19;;;;;;;11.50;8.77;;;;;;;25.06;42.38;96412.50;4942296;29;20058;-76
2021/09/08 10:34:47;;;;;;;11.35;8.60;;;;;;;24.91;44.52;96416.59;4949353;28;20090;-78
2021/09/08 10:37:14;;;;;;;11.80;8.55;;;;;;;24.89;45.63;96405.03;4931294;29;20518;-79
2021/09/08 10:39:42;;;;;;;10.35;8.13;;;;;;;24.82;42.75;96405.91;4931719;29;20058;-77
2021/09/08 10:42:09;;;;;;;15.00;8.30;;;;;;;24.62;44.00;96397.31;4931212;29;20082;-77
2021/09/08 10:44:45;;;;;;;11.82;8.38;;;;;;;24.59;44.49;96400.09;4931782;29;20062;-79
2021/09/08 10:47:12;;;;;;;11.43;8.50;;;;;;;24.58;44.01;96395.72;4931461;29;20063;-78
2021/09/08 10:49:52;;;;;;;13.43;9.95;;;;;;;24.48;44.43;96391.81;4932654;29;20066;-77
2021/09/08 10:52:44;;;;;;;10.77;8.38;;;;;;;24.36;44.77;96395.88;4933588;29;20284;-77
2021/09/08 10:55:23;;;;;;;12.73;7.88;;;;;;;24.31;44.89;96392.72;5110359;27;20399;-73
2021/09/08 10:58:08;;;;;;;13.90;9.57;;;;;;;24.21;45.35;96383.22;5108841;27;20048;-77
2021/09/08 11:00:37;;;;;;;12.70;8.45;;;;;;;24.19;47.71;96380.84;5108873;27;20052;-75
2021/09/08 11:03:06;;;;;;;14.07;8.65;;;;;;;24.07;45.83;96389.69;5110445;27;20070;-74
2021/09/08 11:05:46;;;;;;;11.30;7.97;;;;;;;24.08;46.56;96374.56;5108856;27;20490;-74
2021/09/08 11:08:20;;;;;;;13.05;8.98;;;;;;;23.94;46.31;96380.19;5108468;27;20422;-76
2021/09/08 11:10:48;;;;;;;11.77;8.02;;;;;;;23.89;47.04;96373.06;5108888;27;20051;-76
2021/09/08 11:13:24;;;;;;;10.35;8.27;;;;;;;23.84;48.10;96376.25;5108268;27;20510;-74
2021/09/08 11:15:51;;;;;;;12.23;7.70;;;;;;;23.83;47.06;96379.44;5108555;27;20043;-74
2021/09/08 11:18:17;;;;;;;12.90;8.68;;;;;;;23.85;46.95;96368.72;5108175;27;20048;-75
2021/09/08 11:20:44;;;;;;;12.95;9.40;;;;;;;23.87;48.21;96364.34;5108727;28;20040;-75